Time;durP1;ratioP1;P1;durP2;ratioP2;P2;SDS_P1;SDS_P2;PMS_P1;PMS_P2;Temp;Humidity;BMP_temperature;BMP_pressure;BME280_temperature;BME280_humidity;BME280_pressure;Samples;Min_cycle;Max_cycle;Signal;HPM_P1;HPM_P2
2022/09/09 00:01:12;;;;;;;10.00;9.57;;;;;;;16.59;100.00;100737.19;5050202;28;20040;-64
2022/09/09 00:03:51;;;;;;;10.23;9.73;;;;;;;16.54;100.00;100739.69;5034375;28;20112;-63
2022/09/09 00:06:25;;;;;;;10.15;9.65;;;;;;;16.50;100.00;100737.63;5050990;28;20021;-65
2022/09/09 00:08:57;;;;;;;10.20;9.70;;;;;;;16.41;100.00;100736.19;5050939;28;20025;-63
2022/09/09 00:11:41;;;;;;;10.27;9.77;;;;;;;16.42;100.00;100741.34;5052162;28;20041;-64
2022/09/09 00:14:17;;;;;;;9.80;9.40;;;;;;;16.42;100.00;100738.66;5055153;28;20111;-64
2022/09/09 00:16:49;;;;;;;10.13;9.63;;;;;;;16.17;100.00;100726.94;5045707;28;20017;-64
2022/09/09 00:19:39;;;;;;;10.00;9.50;;;;;;;16.17;100.00;100727.78;5046400;28;20038;-64
2022/09/09 00:22:14;;;;;;;9.50;9.10;;;;;;;16.18;100.00;100728.59;5054675;28;20013;-64
2022/09/09 00:24:45;;;;;;;;;;;;;;;16.24;100.00;100719.75;5055042;28;20086;-64
2022/09/09 00:27:31;;;;;;;10.20;9.70;;;;;;;16.30;100.00;100725.09;5052235;28;19912;-64
2022/09/09 00:30:22;;;;;;;9.88;9.48;;;;;;;16.35;100.00;100726.31;5052677;28;20550;-64
2022/09/09 00:33:11;;;;;;;10.15;9.65;;;;;;;16.39;100.00;100722.19;5054110;28;20033;-63
2022/09/09 00:35:40;;;;;;;10.70;10.20;;;;;;;16.40;100.00;100726.50;5048077;28;20490;-64
2022/09/09 00:38:26;;;;;;;9.80;9.40;;;;;;;16.30;100.00;100722.41;5043518;28;20031;-64
2022/09/09 00:41:01;;;;;;;10.05;9.57;;;;;;;16.23;100.00;100718.91;5043071;28;20476;-65
2022/09/09 00:43:35;;;;;;;9.55;9.15;;;;;;;16.30;100.00;100719.75;5054154;28;20049;-64
2022/09/09 00:46:28;;;;;;;10.00;9.52;;;;;;;16.24;100.00;100720.56;5053300;28;20028;-64
2022/09/09 00:49:03;;;;;;;9.48;9.07;;;;;;;16.28;100.00;100724.44;5049695;28;20031;-64
2022/09/09 00:51:34;;;;;;;9.82;9.43;;;;;;;16.25;100.00;100718.72;5054043;28;20029;-64
2022/09/09 00:54:12;;;;;;;10.27;9.77;;;;;;;16.22;100.00;100714.56;5041001;28;20029;-64
2022/09/09 00:56:50;;;;;;;9.65;9.25;;;;;;;16.31;100.00;100707.16;5054015;28;20021;-64
2022/09/09 00:59:32;;;;;;;9.80;9.40;;;;;;;16.49;100.00;100712.69;5053851;28;20366;-64
2022/09/09 01:01:58;;;;;;;9.80;9.40;;;;;;;16.48;100.00;100712.91;5053971;28;20448;-63
2022/09/09 01:04:33;;;;;;;9.68;9.27;;;;;;;16.50;100.00;100716.19;5053681;28;20036;-64
2022/09/09 01:07:17;;;;;;;9.70;9.30;;;;;;;16.53;100.00;100718.47;5052607;28;20054;-64
2022/09/09 01:10:01;;;;;;;10.55;10.05;;;;;;;16.56;100.00;100720.72;5050343;28;20101;-64
2022/09/09 01:12:38;;;;;;;9.60;9.20;;;;;;;16.45;100.00;100716.84;5044319;28;20021;-64
2022/09/09 01:15:26;;;;;;;9.70;9.30;;;;;;;16.35;100.00;100720.94;5053748;28;20032;-64
2022/09/09 01:18:01;;;;;;;9.85;9.45;;;;;;;16.39;100.00;100717.66;5052609;28;20110;-63
2022/09/09 01:20:39;;;;;;;9.80;9.40;;;;;;;16.03;100.00;100715.41;5053276;28;20120;-64
2022/09/09 01:23:24;;;;;;;9.60;9.20;;;;;;;16.15;100.00;100727.13;5040535;28;20025;-64
2022/09/09 01:26:11;;;;;;;9.70;9.30;;;;;;;16.44;100.00;100731.22;5050931;28;20466;-63
2022/09/09 01:28:38;;;;;;;9.65;9.25;;;;;;;16.38;100.00;100728.56;5050916;28;20111;-63
2022/09/09 01:31:07;;;;;;;9.98;9.50;;;;;;;16.39;100.00;100724.88;5053300;28;20031;-64
2022/09/09 01:33:33;;;;;;;9.80;9.40;;;;;;;16.50;100.00;100722.38;5053140;28;20139;-64
2022/09/09 01:36:24;;;;;;;9.70;9.30;;;;;;;16.32;100.00;100718.69;5048294;28;20440;-64
2022/09/09 01:38:49;;;;;;;9.77;9.38;;;;;;;16.07;100.00;100724.66;5050949;28;20102;-65
2022/09/09 01:41:15;;;;;;;9.70;9.30;;;;;;;16.33;100.00;100731.06;5053001;28;20508;-64
2022/09/09 01:43:40;;;;;;;9.90;9.50;;;;;;;16.01;100.00;100729.00;5048124;28;20040;-64
2022/09/09 01:46:06;;;;;;;9.75;9.35;;;;;;;15.89;100.00;100727.97;5050486;28;20037;-64
2022/09/09 01:48:32;;;;;;;9.65;9.25;;;;;;;16.02;100.00;100721.81;5053325;28;20464;-64
2022/09/09 01:50:57;;;;;;;10.02;9.57;;;;;;;16.07;100.00;100724.66;5052892;28;20024;-64
2022/09/09 01:53:23;;;;;;;9.85;9.43;;;;;;;15.90;100.00;100718.91;5051106;28;20032;-64
2022/09/09 01:56:05;;;;;;;9.75;9.35;;;;;;;15.99;100.00;100725.69;5051441;28;20021;-64
2022/09/09 01:58:42;;;;;;;9.80;9.40;;;;;;;16.03;100.00;100726.13;5052819;28;20029;-64
2022/09/09 02:01:19;;;;;;;10.13;9.63;;;;;;;15.99;100.00;100724.88;5042794;28;20036;-64
2022/09/09 02:03:52;;;;;;;9.80;9.40;;;;;;;16.10;100.00;100718.91;5062944;28;20029;-64
2022/09/09 02:06:26;;;;;;;9.70;9.30;;;;;;;16.02;100.00;100719.13;5051173;28;20032;-64
2022/09/09 02:08:59;;;;;;;9.82;9.43;;;;;;;15.89;100.00;100705.75;5052398;28;20507;-64
2022/09/09 02:11:29;;;;;;;10.13;9.65;;;;;;;16.05;100.00;100716.03;5050985;28;20037;-63
2022/09/09 02:14:01;;;;;;;10.50;10.00;;;;;;;15.93;100.00;100717.66;5052318;28;20052;-64
2022/09/09 02:16:39;;;;;;;10.13;9.63;;;;;;;15.86;100.00;100711.47;5052228;28;20024;-65
2022/09/09 02:19:14;;;;;;;10.27;9.77;;;;;;;15.88;100.00;100712.94;5045229;28;20119;-64
2022/09/09 02:21:43;;;;;;;10.20;9.70;;;;;;;15.88;100.00;100712.94;5052319;28;20439;-64
2022/09/09 02:24:11;;;;;;;10.38;9.88;;;;;;;16.05;100.00;100713.34;5052210;28;20039;-64
2022/09/09 02:26:43;;;;;;;10.00;9.50;;;;;;;15.87;100.00;100711.28;5052373;28;20027;-64
2022/09/09 02:29:20;;;;;;;10.60;10.10;;;;;;;15.92;100.00;100702.63;5050432;28;20067;-64
2022/09/09 02:31:47;;;;;;;9.85;9.45;;;;;;;15.89;100.00;100695.03;5052109;28;20033;-63
2022/09/09 02:34:16;;;;;;;10.10;9.60;;;;;;;15.72;100.00;100686.59;5049128;28;20052;-63
2022/09/09 02:36:45;;;;;;;10.07;9.57;;;;;;;15.89;100.00;100678.97;5049745;28;20021;-63
2022/09/09 02:39:12;;;;;;;9.75;9.35;;;;;;;15.90;100.00;100680.63;5051607;28;20028;-64
2022/09/09 02:41:40;;;;;;;9.95;9.50;;;;;;;15.82;100.00;100683.50;5051365;28;20028;-64
2022/09/09 02:44:11;;;;;;;9.88;9.48;;;;;;;15.73;100.00;100688.25;5051883;28;20044;-63
2022/09/09 02:46:53;;;;;;;10.10;9.60;;;;;;;15.87;100.00;100689.06;5051783;28;20115;-64
2022/09/09 02:49:51;;;;;;;10.13;9.65;;;;;;;15.98;100.00;100691.13;5050353;28;20759;-64
2022/09/09 02:52:35;;;;;;;9.60;9.20;;;;;;;16.14;100.00;100695.22;5044528;28;20398;-64
2022/09/09 02:55:09;;;;;;;10.17;9.67;;;;;;;15.94;100.00;100696.06;5054963;28;20021;-63
2022/09/09 02:57:36;;;;;;;9.82;9.43;;;;;;;16.17;100.00;100700.19;5051972;28;20258;-64
2022/09/09 03:00:03;;;;;;;10.00;9.55;;;;;;;16.06;100.00;100701.63;5050747;28;20068;-64
2022/09/09 03:02:28;;;;;;;10.07;9.57;;;;;;;16.09;100.00;100695.88;5041530;28;20078;-64
2022/09/09 03:04:54;;;;;;;9.52;9.13;;;;;;;16.21;100.00;100701.41;5048577;28;20428;-64
2022/09/09 03:07:19;;;;;;;9.63;9.23;;;;;;;16.12;100.00;100694.63;5042835;28;20036;-65
2022/09/09 03:09:45;;;;;;;10.20;9.70;;;;;;;16.14;100.00;100690.69;5034447;28;20053;-64
2022/09/09 03:12:11;;;;;;;10.18;9.68;;;;;;;16.15;100.00;100691.50;5050566;28;20021;-64
2022/09/09 03:14:37;;;;;;;9.80;9.40;;;;;;;16.09;100.00;100695.88;5050993;28;20025;-65
2022/09/09 03:17:07;;;;;;;9.70;9.30;;;;;;;16.16;100.00;100710.06;5050253;28;20025;-64
2022/09/09 03:19:35;;;;;;;9.85;9.40;;;;;;;16.21;100.00;100707.56;5051051;28;20041;-64
2022/09/09 03:22:00;;;;;;;9.82;9.40;;;;;;;16.14;100.00;100711.28;5049824;28;20060;-64
2022/09/09 03:24:26;;;;;;;9.82;9.40;;;;;;;16.16;100.00;100712.75;5045344;28;20041;-64
2022/09/09 03:26:52;;;;;;;10.10;9.60;;;;;;;16.32;100.00;100700.78;5036248;28;20037;-64
2022/09/09 03:29:18;;;;;;;10.10;9.60;;;;;;;16.27;100.00;100700.56;5031544;28;20013;-64
2022/09/09 03:31:44;;;;;;;9.70;9.30;;;;;;;16.29;100.00;100707.34;5047805;28;20488;-64
2022/09/09 03:34:11;;;;;;;10.00;9.50;;;;;;;16.27;100.00;100705.94;5050488;28;20037;-65
2022/09/09 03:36:36;;;;;;;9.80;9.40;;;;;;;16.37;100.00;100706.31;5051253;28;20526;-64
2022/09/09 03:39:03;;;;;;;10.20;9.70;;;;;;;16.35;100.00;100705.72;5051213;28;20029;-64
2022/09/09 03:41:28;;;;;;;10.15;9.65;;;;;;;16.56;100.00;100702.78;5039346;28;20026;-64
2022/09/09 03:43:54;;;;;;;9.95;9.50;;;;;;;16.58;100.00;100711.44;5035281;28;20061;-64
2022/09/09 03:46:22;;;;;;;9.80;9.40;;;;;;;16.52;100.00;100696.19;5050942;28;20479;-64
2022/09/09 03:48:47;;;;;;;9.73;9.32;;;;;;;16.54;100.00;100698.69;5041973;28;20484;-64
2022/09/09 03:51:13;;;;;;;10.20;9.70;;;;;;;16.62;100.00;100697.63;5055739;28;20104;-64
2022/09/09 03:53:39;;;;;;;10.25;9.75;;;;;;;16.60;100.00;100689.81;5042490;28;20020;-65
2022/09/09 03:56:06;;;;;;;10.38;9.88;;;;;;;16.68;100.00;100691.44;5053029;28;20098;-64
2022/09/09 03:58:33;;;;;;;10.18;9.68;;;;;;;16.95;100.00;100689.50;5041252;28;20041;-64
2022/09/09 04:01:03;;;;;;;9.90;9.48;;;;;;;17.22;100.00;100688.34;5055376;28;20024;-64
2022/09/09 04:03:30;;;;;;;10.45;9.95;;;;;;;17.10;100.00;100680.16;5063866;28;20697;-64
2022/09/09 04:05:58;;;;;;;11.18;10.68;;;;;;;17.45;100.00;100687.00;5051794;28;20050;-64
2022/09/09 04:08:26;;;;;;;10.30;9.80;;;;;;;17.47;100.00;100677.69;5041675;28;20036;-65
2022/09/09 04:10:56;;;;;;;10.00;9.60;;;;;;;17.97;100.00;100687.69;5054521;28;20021;-64
2022/09/09 04:13:22;;;;;;;10.40;9.90;;;;;;;18.25;100.00;100682.69;5054609;28;20399;-63
2022/09/09 04:15:52;;;;;;;10.60;10.10;;;;;;;18.49;100.00;100684.50;5053635;28;20025;-63
2022/09/09 04:18:19;;;;;;;10.38;9.88;;;;;;;18.20;100.00;100685.19;5053381;28;20028;-64
2022/09/09 04:20:47;;;;;;;10.63;10.13;;;;;;;19.25;100.00;100695.84;5048115;28;20108;-64
2022/09/09 04:23:13;;;;;;;10.15;9.73;;;;;;;19.54;100.00;100694.19;5037078;28;20057;-66
2022/09/09 04:25:44;;;;;;;10.98;10.48;;;;;;;20.96;100.00;100694.00;5048020;28;20021;-65
2022/09/09 04:28:10;;;;;;;9.90;9.50;;;;;;;23.16;100.00;100696.47;5049662;28;20075;-65
2022/09/09 04:30:35;;;;;;;10.07;9.68;;;;;;;21.84;100.00;100700.78;5054020;28;20025;-66
2022/09/09 04:33:01;;;;;;;10.40;9.90;;;;;;;22.10;100.00;100707.44;5053281;28;20079;-65
2022/09/09 04:35:27;;;;;;;10.45;9.95;;;;;;;20.61;100.00;100702.97;5053160;28;20029;-65
2022/09/09 04:37:52;;;;;;;10.60;10.10;;;;;;;21.21;100.00;100704.47;5036032;28;20108;-65
2022/09/09 04:40:18;;;;;;;10.00;9.60;;;;;;;20.46;100.00;100699.97;5050972;28;20025;-65
2022/09/09 04:42:43;;;;;;;10.63;10.13;;;;;;;21.08;100.00;100697.50;5043725;28;20392;-65
2022/09/09 04:45:11;;;;;;;11.10;10.60;;;;;;;20.51;100.00;100708.16;5041074;28;20512;-66
2022/09/09 04:47:36;;;;;;;10.90;10.40;;;;;;;20.53;100.00;100708.75;5045466;28;20017;-64
2022/09/09 04:50:02;;;;;;;10.18;9.75;;;;;;;20.45;100.00;100703.72;5044544;28;20052;-65
2022/09/09 04:52:28;;;;;;;10.40;9.90;;;;;;;20.76;100.00;100705.19;5053767;28;20025;-64
2022/09/09 04:54:53;;;;;;;10.50;10.00;;;;;;;20.28;100.00;100698.19;5044501;28;20025;-65
2022/09/09 04:57:19;;;;;;;10.60;10.10;;;;;;;19.61;100.00;100700.31;5047138;28;20029;-66
2022/09/09 04:59:45;;;;;;;11.05;10.55;;;;;;;19.51;100.00;100698.13;5053248;28;20033;-61
2022/09/09 05:02:11;;;;;;;10.90;10.40;;;;;;;19.87;100.00;100693.69;5047928;28;20029;-61
2022/09/09 05:04:37;;;;;;;10.65;10.15;;;;;;;19.50;100.00;100693.81;5034902;28;20052;-61
2022/09/09 05:07:02;;;;;;;10.90;10.40;;;;;;;19.72;100.00;100696.00;5041763;28;20079;-61
2022/09/09 05:09:28;;;;;;;10.00;9.60;;;;;;;21.11;100.00;100694.31;5051689;28;20107;-61
2022/09/09 05:11:54;;;;;;;10.43;9.93;;;;;;;24.56;100.00;100709.88;5054204;28;20029;-61
2022/09/09 05:14:20;;;;;;;10.60;10.10;;;;;;;26.00;100.00;100696.44;5054406;28;20102;-61
2022/09/09 05:16:46;;;;;;;10.75;10.25;;;;;;;27.52;100.00;100699.69;5049560;28;20074;-61
2022/09/09 05:19:12;;;;;;;10.30;9.85;;;;;;;28.08;98.14;100702.81;5041348;28;20036;-61
2022/09/09 05:21:38;;;;;;;10.30;9.88;;;;;;;28.78;99.05;100707.00;5053657;28;20453;-60
2022/09/09 05:24:03;;;;;;;10.65;10.15;;;;;;;27.09;100.00;100702.13;5047508;28;20013;-60
2022/09/09 05:26:29;;;;;;;10.60;10.10;;;;;;;28.63;97.36;100705.28;5042607;28;20029;-60
2022/09/09 05:28:55;;;;;;;10.38;9.93;;;;;;;27.35;100.00;100700.09;5045321;28;20024;-63
2022/09/09 05:31:21;;;;;;;10.40;9.90;;;;;;;29.03;96.60;100704.00;5035847;28;20120;-64
2022/09/09 05:33:49;;;;;;;10.32;9.90;;;;;;;29.17;89.77;100715.00;5039040;28;20029;-62
2022/09/09 05:36:20;;;;;;;10.60;10.10;;;;;;;29.64;91.35;100705.03;5053535;28;20103;-63
2022/09/09 05:38:45;;;;;;;10.10;9.70;;;;;;;28.54;93.30;100705.09;5050444;28;20098;-63
2022/09/09 05:41:12;;;;;;;10.50;10.00;;;;;;;29.29;90.55;100701.72;5043709;28;20025;-63
2022/09/09 05:43:38;;;;;;;10.30;9.90;;;;;;;30.35;82.83;100703.03;5050205;28;20045;-63
2022/09/09 05:46:11;;;;;;;10.40;9.90;;;;;;;27.69;91.27;100713.81;5052893;28;20358;-63
2022/09/09 05:48:39;;;;;;;10.10;9.70;;;;;;;28.62;92.56;100709.09;5052682;28;20460;-63
2022/09/09 05:51:08;;;;;;;10.20;9.80;;;;;;;29.40;88.77;100703.19;5052446;28;20032;-63
2022/09/09 05:53:34;;;;;;;10.63;10.13;;;;;;;29.51;87.13;100706.59;5052588;28;20032;-63
2022/09/09 05:56:21;;;;;;;10.27;9.88;;;;;;;28.32;93.86;100705.63;5052527;28;20025;-63
2022/09/09 05:58:49;;;;;;;10.35;9.93;;;;;;;28.36;92.21;100714.06;5048977;28;20121;-63
2022/09/09 06:01:21;;;;;;;10.10;9.70;;;;;;;30.05;90.51;100709.84;5044970;28;20099;-62
2022/09/09 06:03:49;;;;;;;10.20;9.80;;;;;;;28.50;94.46;100706.81;5047969;28;20103;-62
2022/09/09 06:06:20;;;;;;;10.15;9.75;;;;;;;28.15;96.88;100697.03;5052797;28;20028;-62
2022/09/09 06:08:46;;;;;;;10.30;9.90;;;;;;;27.19;96.74;100710.28;5052397;28;20502;-63
2022/09/09 06:11:20;;;;;;;10.40;9.90;;;;;;;25.80;100.00;100694.53;5052508;28;20024;-64
2022/09/09 06:13:45;;;;;;;;;;;;;;;26.65;100.00;100699.31;5051594;28;20028;-63
2022/09/09 06:16:14;;;;;;;10.73;10.23;;;;;;;25.96;100.00;100702.69;5050692;28;20007;-63
2022/09/09 06:18:41;;;;;;;10.23;9.82;;;;;;;22.85;100.00;100684.44;5052012;28;20291;-63
2022/09/09 06:21:13;;;;;;;10.43;9.95;;;;;;;23.68;100.00;100690.50;5051942;28;20025;-63
2022/09/09 06:23:40;;;;;;;10.55;10.05;;;;;;;26.62;100.00;100708.03;5038830;28;20029;-62
2022/09/09 06:26:07;;;;;;;10.40;9.90;;;;;;;25.87;100.00;100705.94;5050065;28;20029;-63
2022/09/09 06:28:34;;;;;;;10.55;10.05;;;;;;;28.13;100.00;100707.44;5051799;28;20036;-63
2022/09/09 06:31:05;;;;;;;10.52;10.02;;;;;;;25.84;100.00;100702.94;5051676;28;20514;-63
2022/09/09 06:33:34;;;;;;;10.23;9.82;;;;;;;24.02;100.00;100706.47;5050735;28;20115;-62
2022/09/09 06:36:01;;;;;;;10.20;9.80;;;;;;;25.23;100.00;100692.78;5049688;28;20476;-63
2022/09/09 06:38:27;;;;;;;10.00;9.60;;;;;;;23.23;100.00;100710.59;5051838;28;20096;-63
2022/09/09 06:40:58;;;;;;;10.50;10.00;;;;;;;23.62;100.00;100705.88;5037835;28;20589;-64
2022/09/09 06:43:24;;;;;;;10.40;9.93;;;;;;;22.76;100.00;100696.75;5044909;28;20416;-63
2022/09/09 06:45:57;;;;;;;10.52;10.02;;;;;;;24.14;100.00;100704.41;5043185;28;20112;-63
2022/09/09 06:48:25;;;;;;;10.80;10.30;;;;;;;25.04;100.00;100694.34;5051695;28;20052;-62
2022/09/09 06:51:10;;;;;;;11.35;10.85;;;;;;;25.50;100.00;100710.78;5050726;28;20041;-62
2022/09/09 06:53:38;;;;;;;10.20;9.80;;;;;;;25.00;100.00;100704.91;5051602;28;20076;-63
2022/09/09 06:56:24;;;;;;;10.00;9.60;;;;;;;25.69;100.00;100697.47;5047651;28;20101;-62
2022/09/09 06:58:51;;;;;;;10.27;9.88;;;;;;;27.90;100.00;100678.16;5037209;28;20029;-62
2022/09/09 07:01:29;;;;;;;10.25;9.85;;;;;;;27.05;100.00;100689.38;5051633;28;20033;-63
2022/09/09 07:03:55;;;;;;;10.40;9.90;;;;;;;26.32;100.00;100687.94;5051312;28;20694;-62
2022/09/09 07:06:26;;;;;;;10.25;9.82;;;;;;;25.49;100.00;100685.53;5050018;28;20029;-62
2022/09/09 07:08:57;;;;;;;10.20;9.80;;;;;;;26.53;100.00;100690.66;5051326;28;20036;-63
2022/09/09 07:11:29;;;;;;;10.15;9.75;;;;;;;27.36;100.00;100684.56;5051010;28;20033;-62
2022/09/09 07:13:56;;;;;;;10.23;9.82;;;;;;;29.07;98.46;100702.28;5043071;28;20036;-63
2022/09/09 07:16:27;;;;;;;10.20;9.80;;;;;;;27.54;100.00;100692.06;5045985;28;20057;-63
2022/09/09 07:18:57;;;;;;;10.30;9.90;;;;;;;26.35;100.00;100692.00;5051357;28;20024;-63
2022/09/09 07:21:24;;;;;;;10.10;9.70;;;;;;;27.14;100.00;100707.56;5050730;28;20028;-63
2022/09/09 07:23:50;;;;;;;10.18;9.77;;;;;;;27.59;100.00;100702.91;5042583;28;20041;-63
2022/09/09 07:26:20;;;;;;;10.20;9.80;;;;;;;26.99;100.00;100702.16;5045542;28;20032;-62
2022/09/09 07:28:46;;;;;;;9.90;9.50;;;;;;;26.69;100.00;100712.09;5047354;28;20488;-62
2022/09/09 07:31:33;;;;;;;9.98;9.57;;;;;;;27.12;100.00;100695.34;5049177;28;20017;-62
2022/09/09 07:34:00;;;;;;;10.10;9.70;;;;;;;27.22;100.00;100708.88;5035923;28;20028;-62
2022/09/09 07:36:31;;;;;;;10.20;9.80;;;;;;;27.16;100.00;100702.66;5051246;28;20099;-62
2022/09/09 07:39:03;;;;;;;10.07;9.68;;;;;;;26.07;100.00;100701.56;5051462;28;20025;-61
2022/09/09 07:41:36;;;;;;;10.20;9.80;;;;;;;27.60;100.00;100687.38;5050620;28;20030;-62
2022/09/09 07:44:06;;;;;;;10.68;10.18;;;;;;;25.87;100.00;100678.78;5037839;28;20538;-63
2022/09/09 07:46:32;;;;;;;10.75;10.25;;;;;;;26.96;100.00;100689.94;5049068;28;20033;-63
2022/09/09 07:48:58;;;;;;;10.25;9.82;;;;;;;25.60;100.00;100679.00;5051228;28;20053;-63
2022/09/09 07:51:29;;;;;;;10.02;9.63;;;;;;;25.44;100.00;100687.41;5047677;28;20053;-63
2022/09/09 07:53:57;;;;;;;10.15;9.75;;;;;;;25.51;100.00;100668.94;5051288;28;20028;-62
2022/09/09 07:56:24;;;;;;;10.00;9.60;;;;;;;25.02;100.00;100678.31;5050487;28;20447;-63
2022/09/09 07:58:51;;;;;;;10.48;9.98;;;;;;;24.87;100.00;100701.88;5049939;28;20512;-62
2022/09/09 08:01:23;;;;;;;10.00;9.60;;;;;;;25.19;100.00;100686.28;5049799;28;20502;-63
2022/09/09 08:03:59;;;;;;;10.00;9.60;;;;;;;25.69;100.00;100694.75;5036540;28;20057;-63
2022/09/09 08:06:26;;;;;;;10.05;9.65;;;;;;;25.42;100.00;100671.38;5050534;28;20836;-63
2022/09/09 08:08:52;;;;;;;10.70;10.20;;;;;;;25.58;100.00;100664.88;5050841;28;20037;-63
2022/09/09 08:11:19;;;;;;;10.85;10.35;;;;;;;25.43;100.00;100670.31;5039845;28;20017;-63
2022/09/09 08:13:45;;;;;;;10.07;9.68;;;;;;;27.29;100.00;100667.72;5050071;28;20021;-63
2022/09/09 08:16:13;;;;;;;10.27;9.88;;;;;;;29.02;100.00;100683.25;5037810;28;20111;-63
2022/09/09 08:18:39;;;;;;;10.57;10.07;;;;;;;28.29;100.00;100683.53;5042163;28;20108;-62
2022/09/09 08:21:17;;;;;;;9.82;9.43;;;;;;;28.15;100.00;100685.31;5047348;28;20463;-61
2022/09/09 08:23:45;;;;;;;9.95;9.55;;;;;;;28.66;100.00;100682.88;5050483;28;20480;-62
2022/09/09 08:26:22;;;;;;;9.73;9.32;;;;;;;28.24;100.00;100684.38;5050797;28;20029;-63
2022/09/09 08:28:52;;;;;;;9.63;9.23;;;;;;;26.99;100.00;100683.91;5047175;28;20021;-62
2022/09/09 08:31:23;;;;;;;10.13;9.73;;;;;;;28.23;100.00;100680.03;5048542;28;20083;-63
2022/09/09 08:33:49;;;;;;;10.45;9.95;;;;;;;28.09;100.00;100673.63;5052304;28;20070;-63
2022/09/09 08:36:18;;;;;;;10.13;9.73;;;;;;;28.42;100.00;100673.84;5054053;28;20017;-63
2022/09/09 08:38:51;;;;;;;10.07;9.68;;;;;;;28.46;100.00;100675.72;5045075;28;20461;-63
2022/09/09 08:41:35;;;;;;;10.13;9.73;;;;;;;29.13;97.56;100667.53;5050837;28;20020;-63
2022/09/09 08:44:30;;;;;;;9.85;9.45;;;;;;;28.78;96.79;100669.59;5054490;28;20053;-63
2022/09/09 08:47:18;;;;;;;9.57;9.18;;;;;;;28.76;98.25;100663.63;5044721;28;20052;-63
2022/09/09 08:49:53;;;;;;;9.82;9.43;;;;;;;28.47;98.15;100674.63;5050568;28;20033;-63
2022/09/09 08:52:49;;;;;;;10.13;9.73;;;;;;;28.39;93.96;100658.88;5053855;28;20040;-63
2022/09/09 08:55:46;;;;;;;10.02;9.63;;;;;;;28.24;91.83;100662.56;5038342;28;20051;-62
2022/09/09 08:58:18;;;;;;;10.60;10.10;;;;;;;28.94;90.17;100659.34;5053974;28;20033;-63
2022/09/09 09:01:08;;;;;;;9.95;9.55;;;;;;;29.68;86.94;100652.22;5044497;28;20442;-62
2022/09/09 09:04:05;;;;;;;10.48;9.98;;;;;;;29.24;87.89;100660.81;5051934;28;20040;-63
2022/09/09 09:06:30;;;;;;;9.68;9.27;;;;;;;28.72;89.31;100667.22;5042607;28;20037;-63
2022/09/09 09:09:20;;;;;;;10.20;9.80;;;;;;;28.79;88.99;100663.06;5035783;28;20064;-62
2022/09/09 09:11:55;;;;;;;9.73;9.32;;;;;;;29.02;88.04;100657.88;5044641;28;20033;-63
2022/09/09 09:14:25;;;;;;;10.00;9.60;;;;;;;29.17;90.41;100663.09;5053701;28;20047;-62
2022/09/09 09:16:58;;;;;;;9.85;9.45;;;;;;;28.81;94.19;100660.81;5050051;28;20028;-63
2022/09/09 09:19:26;;;;;;;10.00;9.60;;;;;;;29.15;92.68;100663.38;5042605;28;20098;-63
2022/09/09 09:22:06;;;;;;;9.93;9.52;;;;;;;28.24;91.38;100650.84;5049525;28;20091;-63
2022/09/09 09:24:54;;;;;;;9.93;9.52;;;;;;;29.10;88.34;100659.94;5053334;28;20017;-62
2022/09/09 09:27:35;;;;;;;9.93;9.52;;;;;;;28.85;88.61;100664.59;5053653;28;20439;-63
2022/09/09 09:30:06;;;;;;;9.80;9.40;;;;;;;28.17;93.04;100656.63;5052824;28;20098;-63
2022/09/09 09:32:34;;;;;;;9.77;9.38;;;;;;;27.36;95.49;100643.69;5053568;28;20311;-63
2022/09/09 09:35:06;;;;;;;9.75;9.35;;;;;;;26.99;97.93;100643.09;5051787;28;20021;-63
2022/09/09 09:37:35;;;;;;;10.18;9.77;;;;;;;27.59;97.70;100633.97;5039274;28;20052;-63
2022/09/09 09:40:15;;;;;;;9.90;9.50;;;;;;;27.63;97.63;100635.84;5043498;28;20204;-63
2022/09/09 09:42:49;;;;;;;9.77;9.38;;;;;;;27.30;97.57;100647.56;5053191;28;20028;-63
2022/09/09 09:45:44;;;;;;;9.80;9.40;;;;;;;26.91;98.97;100634.69;5052350;28;20486;-62
2022/09/09 09:48:12;;;;;;;10.15;9.75;;;;;;;26.64;99.03;100638.63;5042861;28;20052;-63
2022/09/09 09:50:47;;;;;;;10.00;9.60;;;;;;;26.90;98.54;100633.88;5053142;28;20119;-63
2022/09/09 09:53:21;;;;;;;10.60;10.10;;;;;;;26.33;100.00;100634.38;5039163;28;20546;-63
2022/09/09 09:55:53;;;;;;;11.10;10.60;;;;;;;26.34;100.00;100641.44;5051375;28;20025;-63
2022/09/09 09:58:19;;;;;;;10.70;10.20;;;;;;;26.20;100.00;100637.66;5045993;28;20111;-64
2022/09/09 10:00:50;;;;;;;10.45;9.98;;;;;;;26.16;100.00;100640.94;5044062;28;20678;-62
2022/09/09 10:03:31;;;;;;;10.52;10.02;;;;;;;25.96;100.00;100651.84;5041932;28;20025;-63
2022/09/09 10:05:57;;;;;;;9.95;9.55;;;;;;;25.95;100.00;100649.41;5041863;28;20486;-63
2022/09/09 10:08:27;;;;;;;10.70;10.20;;;;;;;26.26;100.00;100658.31;5052430;28;20025;-62
2022/09/09 10:11:01;;;;;;;11.10;10.60;;;;;;;25.89;100.00;100659.47;5052039;28;20096;-63
2022/09/09 10:13:32;;;;;;;10.18;9.77;;;;;;;25.77;100.00;100659.72;5051372;28;20028;-63
2022/09/09 10:16:07;;;;;;;10.07;9.68;;;;;;;25.84;100.00;100659.47;5052520;28;20400;-64
2022/09/09 10:18:58;;;;;;;10.10;9.70;;;;;;;26.26;100.00;100664.56;5052290;28;20480;-63
2022/09/09 10:22:02;;;;;;;10.48;9.98;;;;;;;26.02;100.00;100663.53;5043495;28;20067;-63
2022/09/09 10:24:39;;;;;;;10.80;10.30;;;;;;;25.74;100.00;100664.91;5048200;28;20114;-64
2022/09/09 10:27:30;;;;;;;10.82;10.32;;;;;;;25.88;100.00;100655.94;5051643;28;20343;-62
2022/09/09 10:30:08;;;;;;;10.52;10.02;;;;;;;26.01;100.00;100667.34;5051035;28;20032;-63
2022/09/09 10:32:52;;;;;;;10.50;10.00;;;;;;;25.44;100.00;100671.13;5052065;28;20086;-63
2022/09/09 10:35:55;;;;;;;10.50;10.00;;;;;;;25.99;100.00;100673.03;5052176;28;20047;-63
2022/09/09 10:38:44;;;;;;;10.13;9.73;;;;;;;26.09;100.00;100681.19;5051913;28;20258;-63
2022/09/09 10:41:25;;;;;;;9.90;9.50;;;;;;;25.82;100.00;100677.94;5041903;28;20030;-62
2022/09/09 10:44:18;;;;;;;10.52;10.02;;;;;;;25.72;100.00;100678.78;5049723;28;20057;-63
2022/09/09 10:47:33;;;;;;;10.45;9.95;;;;;;;25.53;100.00;100680.34;5049497;28;20048;-63
2022/09/09 10:50:23;;;;;;;10.45;9.95;;;;;;;25.61;100.00;100668.94;5024169;28;20527;-63
2022/09/09 10:53:08;;;;;;;9.82;9.43;;;;;;;25.69;100.00;100671.13;5052026;28;20037;-62
2022/09/09 10:55:43;;;;;;;10.00;9.60;;;;;;;25.61;100.00;100677.09;5050517;28;20033;-62
2022/09/09 10:58:23;;;;;;;9.68;9.27;;;;;;;25.49;100.00;100673.84;5046890;28;20396;-63
2022/09/09 11:01:02;;;;;;;10.27;9.80;;;;;;;25.56;100.00;100677.09;5042553;28;20029;-63
2022/09/09 11:03:29;;;;;;;10.50;10.00;;;;;;;25.52;100.00;100682.25;5048114;28;20016;-64
2022/09/09 11:06:05;;;;;;;10.57;10.07;;;;;;;25.71;100.00;100677.13;5047443;28;20094;-63
2022/09/09 11:08:35;;;;;;;10.10;9.70;;;;;;;25.57;100.00;100682.28;5051481;28;20392;-63
2022/09/09 11:11:12;;;;;;;10.70;10.20;;;;;;;25.41;100.00;100668.91;5049992;28;20112;-63
2022/09/09 11:13:59;;;;;;;10.32;9.82;;;;;;;25.36;100.00;100672.47;5044039;28;20485;-63
2022/09/09 11:16:52;;;;;;;10.00;9.60;;;;;;;25.36;100.00;100664.31;5047361;28;20029;-63
2022/09/09 11:19:38;;;;;;;10.30;9.80;;;;;;;25.51;100.00;100675.19;5038215;28;20029;-63
2022/09/09 11:22:19;;;;;;;10.13;9.70;;;;;;;25.75;100.00;100669.25;5050360;28;20074;-63
2022/09/09 11:24:51;;;;;;;10.00;9.60;;;;;;;25.96;100.00;100661.91;5038638;28;20107;-63
2022/09/09 11:27:25;;;;;;;10.07;9.68;;;;;;;26.05;100.00;100660.25;5049877;28;20033;-63
2022/09/09 11:30:15;;;;;;;10.15;9.75;;;;;;;25.91;100.00;100660.00;5044724;28;20037;-63
2022/09/09 11:32:56;;;;;;;10.50;10.00;;;;;;;26.17;100.00;100656.16;5038770;28;20072;-62
2022/09/09 11:35:25;;;;;;;9.65;9.25;;;;;;;25.97;100.00;100658.91;5051040;28;20033;-62
2022/09/09 11:38:07;;;;;;;10.00;9.60;;;;;;;26.02;100.00;100666.25;5050175;28;20036;-63